Time;durP1;ratioP1;P1;durP2;ratioP2;P2;SDS_P1;SDS_P2;PMS_P1;PMS_P2;Temp;Humidity;BMP_temperature;BMP_pressure;BME280_temperature;BME280_humidity;BME280_pressure;Samples;Min_cycle;Max_cycle;Signal;HPM_P1;HPM_P2
2022/10/02 00:01:34;;;;;;;1.10;0.30;;;17.80;99.90;;;;;;5028658;28;20209;-78
2022/10/02 00:04:07;;;;;;;0.57;0.30;;;17.70;99.90;;;;;;5029961;28;20200;-78
2022/10/02 00:06:45;;;;;;;2.35;0.45;;;17.60;99.90;;;;;;5031492;28;20278;-79
2022/10/02 00:09:24;;;;;;;0.65;0.30;;;17.80;99.90;;;;;;5031732;28;20198;-80
2022/10/02 00:12:00;;;;;;;1.05;0.28;;;17.90;99.90;;;;;;5030304;28;20203;-78
2022/10/02 00:14:38;;;;;;;2.88;0.30;;;17.70;99.90;;;;;;5026732;28;20197;-79
2022/10/02 00:17:11;;;;;;;1.75;0.32;;;17.50;99.90;;;;;;5027230;28;20233;-79
2022/10/02 00:19:42;;;;;;;0.85;0.30;;;17.30;99.90;;;;;;5026586;28;20203;-79
2022/10/02 00:22:39;;;;;;;1.35;0.38;;;17.10;99.90;;;;;;5027333;28;20594;-79
2022/10/02 00:25:20;;;;;;;1.35;0.40;;;17.00;99.90;;;;;;5022616;28;20210;-78
2022/10/02 00:28:03;;;;;;;1.00;0.20;;;17.00;99.90;;;;;;5025305;28;20194;-79
2022/10/02 00:30:46;;;;;;;0.88;0.30;;;17.30;99.90;;;;;;5025253;28;20225;-78
2022/10/02 00:33:26;;;;;;;1.80;0.40;;;17.60;99.90;;;;;;5024927;28;20224;-79
2022/10/02 00:36:14;;;;;;;0.40;0.30;;;17.90;99.90;;;;;;5029800;28;20209;-80
2022/10/02 00:38:55;;;;;;;1.40;0.45;;;18.20;99.90;;;;;;5034721;28;20589;-79
2022/10/02 00:41:56;;;;;;;1.33;0.40;;;18.50;99.90;;;;;;5035508;28;20209;-80
2022/10/02 00:44:44;;;;;;;1.25;0.30;;;18.60;99.90;;;;;;5036275;28;20202;-79
2022/10/02 00:47:24;;;;;;;1.75;0.47;;;18.40;99.90;;;;;;5033770;28;20198;-79
2022/10/02 00:50:07;;;;;;;1.35;0.50;;;18.10;99.90;;;;;;5026225;28;20228;-79
2022/10/02 00:53:02;;;;;;;2.28;0.52;;;17.90;99.90;;;;;;5026838;28;20202;-77
2022/10/02 00:55:48;;;;;;;2.75;0.50;;;17.70;99.90;;;;;;5031240;28;20224;-80
2022/10/02 00:58:33;;;;;;;2.22;0.50;;;17.40;99.90;;;;;;5044470;28;20207;-78
2022/10/02 01:01:09;;;;;;;3.15;0.60;;;17.20;99.90;;;;;;5032141;28;20194;-79
2022/10/02 01:03:44;;;;;;;2.00;0.50;;;17.00;99.90;;;;;;5032495;28;20603;-79
2022/10/02 01:06:15;;;;;;;2.55;0.60;;;16.90;99.90;;;;;;5040779;28;20197;-78
2022/10/02 01:08:46;;;;;;;1.02;0.40;;;17.00;99.90;;;;;;5030793;28;20717;-79
2022/10/02 01:11:17;;;;;;;1.33;0.50;;;17.20;99.90;;;;;;5028983;28;20222;-79
2022/10/02 01:13:48;;;;;;;1.48;0.40;;;17.50;99.90;;;;;;5028873;28;20202;-78
2022/10/02 01:16:19;;;;;;;1.98;0.55;;;17.80;99.90;;;;;;5026735;28;20220;-77
2022/10/02 01:18:52;;;;;;;2.10;0.40;;;17.90;99.90;;;;;;5026239;28;20200;-79
2022/10/02 01:21:28;;;;;;;2.15;0.47;;;18.30;99.90;;;;;;5026638;28;20213;-78
2022/10/02 01:24:04;;;;;;;3.25;0.40;;;18.50;99.90;;;;;;5031695;28;20194;-78
2022/10/02 01:26:37;;;;;;;1.40;0.50;;;18.50;99.90;;;;;;5032816;28;20233;-78
2022/10/02 01:29:08;;;;;;;0.88;0.40;;;18.30;99.90;;;;;;5028266;28;20668;-70
2022/10/02 01:31:39;;;;;;;2.63;0.60;;;17.90;99.90;;;;;;5038952;28;21332;-75
2022/10/02 01:34:10;;;;;;;2.35;0.38;;;17.70;99.90;;;;;;5041272;28;20227;-76
2022/10/02 01:36:41;;;;;;;1.00;0.38;;;17.80;99.90;;;;;;5039427;28;20190;-75
2022/10/02 01:39:12;;;;;;;1.05;0.45;;;18.10;99.90;;;;;;5039428;28;20193;-71
2022/10/02 01:41:47;;;;;;;2.83;0.52;;;18.20;99.90;;;;;;5039015;28;20688;-80
2022/10/02 01:44:18;;;;;;;2.35;0.50;;;18.40;99.90;;;;;;5038269;28;20198;-73
2022/10/02 01:46:59;;;;;;;1.50;0.40;;;18.60;99.90;;;;;;5040566;28;20535;-74
2022/10/02 01:50:03;;;;;;;0.55;0.20;;;18.80;99.90;;;;;;5036576;28;20201;-75
2022/10/02 01:52:46;;;;;;;0.52;0.30;;;18.80;99.90;;;;;;5038562;28;20209;-72
2022/10/02 01:55:34;;;;;;;1.38;0.40;;;18.90;99.90;;;;;;5038095;28;20198;-76
2022/10/02 01:58:20;;;;;;;2.25;0.50;;;19.00;99.90;;;;;;5039066;28;20190;-77
2022/10/02 02:01:02;;;;;;;0.50;0.30;;;18.80;99.90;;;;;;5039266;28;20280;-74
2022/10/02 02:03:40;;;;;;;0.80;0.40;;;18.60;99.90;;;;;;5034391;28;20198;-78
2022/10/02 02:06:16;;;;;;;1.60;0.40;;;18.70;99.90;;;;;;5037744;28;20196;-77
2022/10/02 02:08:53;;;;;;;2.25;0.40;;;18.90;99.90;;;;;;5039932;28;20708;-80
2022/10/02 02:11:24;;;;;;;1.00;0.30;;;18.60;99.90;;;;;;5040099;28;20220;-71
2022/10/02 02:14:02;;;;;;;1.70;0.70;;;18.70;99.90;;;;;;5039629;28;20659;-79
2022/10/02 02:16:41;;;;;;;1.48;0.40;;;18.60;99.90;;;;;;5035984;28;20204;-76
2022/10/02 02:19:18;;;;;;;1.52;0.50;;;18.50;99.90;;;;;;5040473;28;20193;-77
2022/10/02 02:21:55;;;;;;;2.17;0.60;;;18.30;99.90;;;;;;5041215;28;20220;-78
2022/10/02 02:24:30;;;;;;;0.70;0.55;;;18.40;99.90;;;;;;5039000;28;20189;-76
2022/10/02 02:27:04;;;;;;;0.70;0.40;;;18.70;99.90;;;;;;5041782;28;20197;-76
2022/10/02 02:29:39;;;;;;;2.42;0.50;;;18.90;99.90;;;;;;5042525;28;20684;-74
2022/10/02 02:32:12;;;;;;;1.35;0.50;;;18.90;99.90;;;;;;5043535;28;20229;-75
2022/10/02 02:34:46;;;;;;;0.82;0.20;;;18.60;99.90;;;;;;5044224;28;20213;-75
2022/10/02 02:37:21;;;;;;;2.50;0.65;;;18.40;99.90;;;;;;5037811;28;20226;-76
2022/10/02 02:39:55;;;;;;;2.10;0.45;;;18.10;99.90;;;;;;5023196;28;20297;-78
2022/10/02 02:42:28;;;;;;;1.20;0.40;;;17.80;99.90;;;;;;5031122;28;20202;-74
2022/10/02 02:45:05;;;;;;;1.65;0.55;;;17.60;99.90;;;;;;5028488;28;20200;-78
2022/10/02 02:47:40;;;;;;;4.32;0.50;;;17.50;99.90;;;;;;5028152;28;20222;-78
2022/10/02 02:50:16;;;;;;;2.05;0.40;;;17.30;99.90;;;;;;5034044;28;20202;-75
2022/10/02 02:52:53;;;;;;;2.25;0.50;;;17.00;99.90;;;;;;5032903;28;20572;-77
2022/10/02 02:55:28;;;;;;;1.52;0.60;;;16.90;99.90;;;;;;5027020;28;20197;-75
2022/10/02 02:58:04;;;;;;;2.78;0.55;;;16.70;99.90;;;;;;5033303;28;20281;-75
2022/10/02 03:00:37;;;;;;;2.70;0.60;;;16.60;99.90;;;;;;5033534;28;20206;-75
2022/10/02 03:03:08;;;;;;;2.20;0.65;;;16.50;99.90;;;;;;5032321;28;20571;-77
2022/10/02 03:05:43;;;;;;;3.33;0.57;;;16.50;99.90;;;;;;5034512;28;20202;-74
2022/10/02 03:08:22;;;;;;;1.70;0.50;;;16.50;99.90;;;;;;5032953;28;20609;-78
2022/10/02 03:11:05;;;;;;;1.48;0.50;;;16.40;99.90;;;;;;5028234;28;20226;-77
2022/10/02 03:13:54;;;;;;;1.38;0.35;;;16.30;99.90;;;;;;5034571;28;20193;-79
2022/10/02 03:16:41;;;;;;;0.93;0.40;;;16.40;99.90;;;;;;5033194;28;20279;-75
2022/10/02 03:19:22;;;;;;;2.40;0.50;;;16.30;99.90;;;;;;5033266;28;20544;-77
2022/10/02 03:22:03;;;;;;;1.48;0.43;;;16.50;99.90;;;;;;5033686;28;20198;-77
2022/10/02 03:24:41;;;;;;;1.83;0.40;;;16.80;99.90;;;;;;5026895;28;20194;-71
2022/10/02 03:27:18;;;;;;;1.00;0.40;;;17.00;99.90;;;;;;5033138;28;20198;-77
2022/10/02 03:29:54;;;;;;;1.02;0.43;;;17.00;99.90;;;;;;5034014;28;20200;-75
2022/10/02 03:32:28;;;;;;;1.80;0.60;;;17.10;99.90;;;;;;5024104;28;20240;-78
2022/10/02 03:34:59;;;;;;;1.10;0.40;;;17.30;99.90;;;;;;5027487;28;20198;-74
2022/10/02 03:37:32;;;;;;;1.27;0.43;;;17.40;99.90;;;;;;5030878;28;20230;-72
2022/10/02 03:40:04;;;;;;;1.33;0.50;;;17.30;99.90;;;;;;5030140;28;20654;-77
2022/10/02 03:42:36;;;;;;;2.20;0.45;;;17.40;99.90;;;;;;5026534;28;20221;-72
2022/10/02 03:45:08;;;;;;;0.88;0.40;;;17.40;99.90;;;;;;5032698;28;20220;-75
2022/10/02 03:47:40;;;;;;;3.03;0.40;;;17.50;99.90;;;;;;5026471;28;20198;-74
2022/10/02 03:50:14;;;;;;;0.90;0.52;;;17.60;99.90;;;;;;5027380;28;20283;-78
2022/10/02 03:52:45;;;;;;;1.52;0.50;;;17.70;99.90;;;;;;5028833;28;20212;-73
2022/10/02 03:55:28;;;;;;;1.25;0.30;;;17.60;99.90;;;;;;5030509;28;20283;-76
2022/10/02 03:57:59;;;;;;;1.38;0.38;;;17.60;99.90;;;;;;5020647;28;20574;-77
2022/10/02 04:00:34;;;;;;;0.95;0.25;;;17.70;99.90;;;;;;5032839;28;20658;-73
2022/10/02 04:03:12;;;;;;;2.00;0.40;;;17.70;99.90;;;;;;5032197;28;20194;-75
2022/10/02 04:05:46;;;;;;;1.17;0.40;;;17.70;99.90;;;;;;5017014;28;20202;-75
2022/10/02 04:08:20;;;;;;;0.98;0.20;;;17.60;99.90;;;;;;5031829;28;20199;-76
2022/10/02 04:10:56;;;;;;;0.68;0.25;;;17.40;99.90;;;;;;5030735;28;20259;-76
2022/10/02 04:13:33;;;;;;;0.68;0.38;;;17.10;99.90;;;;;;5031146;28;20747;-70
2022/10/02 04:16:10;;;;;;;2.05;0.40;;;17.10;99.90;;;;;;5027290;28;20197;-78
2022/10/02 04:18:49;;;;;;;1.90;0.30;;;17.10;99.90;;;;;;5021697;28;20209;-76
2022/10/02 04:21:37;;;;;;;2.88;0.40;;;17.20;99.90;;;;;;5032274;28;20202;-79
2022/10/02 04:24:17;;;;;;;2.58;0.55;;;17.30;99.90;;;;;;5032498;28;20201;-79
2022/10/02 04:26:56;;;;;;;2.63;0.50;;;17.40;99.90;;;;;;5028939;28;20198;-77
2022/10/02 04:29:33;;;;;;;2.42;0.30;;;17.30;99.90;;;;;;5031206;28;20202;-76
2022/10/02 04:32:13;;;;;;;0.70;0.30;;;17.40;99.90;;;;;;5025318;28;20314;-74
2022/10/02 04:34:46;;;;;;;0.90;0.32;;;17.50;99.90;;;;;;5027830;28;20217;-76
2022/10/02 04:37:39;;;;;;;0.43;0.20;;;17.50;99.90;;;;;;5027002;28;20229;-80
2022/10/02 04:40:31;;;;;;;0.57;0.20;;;17.60;99.90;;;;;;5030165;28;20194;-78
2022/10/02 04:43:17;;;;;;;0.80;0.30;;;17.50;99.90;;;;;;5028125;28;20198;-78
2022/10/02 04:46:05;;;;;;;1.00;0.32;;;17.40;99.90;;;;;;5028476;28;20199;-79
2022/10/02 04:48:53;;;;;;;1.88;0.32;;;17.40;99.90;;;;;;5029965;28;20658;-79
2022/10/02 04:51:50;;;;;;;1.08;0.40;;;17.40;99.90;;;;;;5027162;28;20218;-77
2022/10/02 04:54:43;;;;;;;3.20;0.60;;;17.50;99.90;;;;;;5025969;28;20208;-78
2022/10/02 04:57:51;;;;;;;1.85;0.30;;;17.50;99.90;;;;;;5023772;28;20204;-78
2022/10/02 05:00:24;;;;;;;1.77;0.40;;;17.40;99.90;;;;;;5022301;28;20205;-78
2022/10/02 05:03:18;;;;;;;1.27;0.50;;;17.30;99.90;;;;;;5031020;28;20575;-74
2022/10/02 05:06:03;;;;;;;1.25;0.25;;;17.40;99.90;;;;;;5026591;28;20212;-70
2022/10/02 05:09:01;;;;;;;0.98;0.40;;;17.40;99.90;;;;;;5030941;28;20198;-73
2022/10/02 05:11:53;;;;;;;1.17;0.57;;;17.30;99.90;;;;;;5022904;28;20652;-78
2022/10/02 05:14:37;;;;;;;1.52;0.30;;;17.20;99.90;;;;;;5027563;28;20194;-78
2022/10/02 05:17:23;;;;;;;0.95;0.32;;;17.20;99.90;;;;;;5027209;28;20193;-78
2022/10/02 05:20:17;;;;;;;1.45;0.40;;;17.20;99.90;;;;;;5027997;28;20559;-78
2022/10/02 05:23:14;;;;;;;1.15;0.50;;;17.30;99.90;;;;;;5029676;28;20206;-76
2022/10/02 05:26:03;;;;;;;2.95;0.40;;;17.10;99.90;;;;;;5027962;28;20210;-76
2022/10/02 05:29:09;;;;;;;1.65;0.50;;;17.20;99.90;;;;;;5028039;28;20197;-76
2022/10/02 05:31:55;;;;;;;2.55;0.43;;;17.20;99.90;;;;;;4973714;28;20242;-76
2022/10/02 05:34:46;;;;;;;2.60;0.40;;;17.10;99.90;;;;;;5024496;28;20197;-76
2022/10/02 05:37:29;;;;;;;2.10;0.52;;;17.00;99.90;;;;;;5033810;28;20236;-76
2022/10/02 05:40:05;;;;;;;1.30;0.60;;;16.90;99.90;;;;;;5027916;28;20616;-70
2022/10/02 05:42:40;;;;;;;1.42;0.40;;;17.00;99.90;;;;;;5031720;28;20194;-74
2022/10/02 05:45:26;;;;;;;1.67;0.40;;;16.90;99.90;;;;;;5038376;28;20194;-76
2022/10/02 05:48:04;;;;;;;3.20;0.40;;;16.90;99.90;;;;;;5031811;28;20567;-77
2022/10/02 05:50:38;;;;;;;1.17;0.40;;;16.90;99.90;;;;;;5025672;28;20213;-76
2022/10/02 05:53:20;;;;;;;1.23;0.30;;;16.80;99.90;;;;;;5029984;28;20220;-75
2022/10/02 05:55:54;;;;;;;0.68;0.30;;;16.80;99.90;;;;;;5025549;28;20571;-75
2022/10/02 05:58:31;;;;;;;1.58;0.40;;;16.70;99.90;;;;;;5031289;28;20201;-76
2022/10/02 06:01:07;;;;;;;1.25;0.50;;;16.70;99.90;;;;;;5029198;28;20557;-76
2022/10/02 06:03:43;;;;;;;0.85;0.30;;;16.80;99.90;;;;;;5028184;28;20704;-78
2022/10/02 06:06:18;;;;;;;1.20;0.30;;;16.80;99.90;;;;;;5033597;28;20228;-73
2022/10/02 06:08:57;;;;;;;0.60;0.40;;;16.90;99.90;;;;;;5035605;28;20199;-77
2022/10/02 06:11:33;;;;;;;1.35;0.50;;;17.00;99.90;;;;;;5034633;28;20217;-75
2022/10/02 06:14:21;;;;;;;0.75;0.40;;;17.10;99.90;;;;;;5035350;28;20218;-74
2022/10/02 06:16:59;;;;;;;0.55;0.40;;;17.10;99.90;;;;;;5041723;28;20210;-72
2022/10/02 06:19:34;;;;;;;1.63;0.40;;;17.10;99.90;;;;;;5026149;28;20202;-76
2022/10/02 06:22:10;;;;;;;1.00;0.40;;;17.10;99.90;;;;;;5030043;28;20203;-73
2022/10/02 06:24:48;;;;;;;2.97;0.68;;;17.00;99.90;;;;;;5032304;28;21567;-75
2022/10/02 06:27:25;;;;;;;1.10;0.40;;;17.00;99.90;;;;;;5032028;28;20649;-73
2022/10/02 06:30:02;;;;;;;0.90;0.50;;;17.00;99.90;;;;;;5033259;28;20204;-79
2022/10/02 06:32:40;;;;;;;1.73;0.40;;;16.90;99.90;;;;;;5033774;28;20230;-78
2022/10/02 06:35:15;;;;;;;1.02;0.50;;;16.80;99.90;;;;;;5030836;28;20559;-79
2022/10/02 06:38:03;;;;;;;1.30;0.57;;;16.80;99.90;;;;;;5030924;28;20266;-79
2022/10/02 06:40:49;;;;;;;3.22;0.50;;;16.60;99.90;;;;;;5032379;28;20194;-79
2022/10/02 06:43:34;;;;;;;0.40;0.40;;;16.50;99.90;;;;;;5033436;28;20210;-81
2022/10/02 06:46:21;;;;;;;2.38;0.52;;;16.40;99.90;;;;;;5026484;28;20677;-79
2022/10/02 06:48:57;;;;;;;1.15;0.60;;;16.40;99.90;;;;;;5032954;28;20777;-77
2022/10/02 06:51:36;;;;;;;0.90;0.45;;;16.50;99.90;;;;;;5032532;28;20661;-73
2022/10/02 06:54:23;;;;;;;2.47;0.90;;;16.50;99.90;;;;;;5026084;28;20194;-78
2022/10/02 06:57:13;;;;;;;0.80;0.60;;;16.50;99.90;;;;;;5028500;28;20209;-80
2022/10/02 07:00:00;;;;;;;1.80;0.63;;;16.40;99.90;;;;;;5030275;28;20550;-80
2022/10/02 07:02:58;;;;;;;2.40;0.68;;;16.30;99.90;;;;;;5024680;28;20206;-75
2022/10/02 07:05:56;;;;;;;1.77;0.70;;;16.30;99.90;;;;;;5027519;28;20199;-78
2022/10/02 07:08:38;;;;;;;2.28;0.70;;;16.40;99.90;;;;;;5020237;28;20203;-79
2022/10/02 07:11:18;;;;;;;4.00;0.65;;;16.30;99.90;;;;;;5027013;28;20194;-77
2022/10/02 07:14:01;;;;;;;1.67;0.55;;;16.20;99.90;;;;;;5028245;28;20198;-80
2022/10/02 07:17:04;;;;;;;0.75;0.50;;;16.20;99.90;;;;;;5028987;28;20203;-79
2022/10/02 07:19:52;;;;;;;0.90;0.60;;;16.10;99.90;;;;;;5028817;28;20210;-81
2022/10/02 07:22:37;;;;;;;1.85;0.57;;;15.90;99.90;;;;;;5031757;28;20199;-76
2022/10/02 07:25:32;;;;;;;1.50;0.68;;;15.80;99.90;;;;;;5025873;28;20241;-80
2022/10/02 07:28:14;;;;;;;1.38;0.60;;;15.80;99.90;;;;;;5025086;28;20206;-70
2022/10/02 07:30:55;;;;;;;0.82;0.60;;;15.70;99.90;;;;;;5029503;28;20202;-80
2022/10/02 07:33:41;;;;;;;0.82;0.50;;;15.60;99.90;;;;;;5028902;28;20217;-82
2022/10/02 07:36:19;;;;;;;1.35;0.50;;;15.60;99.90;;;;;;5022165;28;20200;-79
2022/10/02 07:39:04;;;;;;;2.40;0.57;;;15.60;99.90;;;;;;5025205;28;20237;-70
2022/10/02 07:42:03;;;;;;;4.43;0.60;;;15.50;99.90;;;;;;5026621;28;20204;-78
2022/10/02 07:44:48;;;;;;;1.35;0.60;;;15.50;99.90;;;;;;5023431;28;20225;-81
2022/10/02 07:47:30;;;;;;;0.93;0.50;;;15.40;99.90;;;;;;5028897;28;20198;-78
2022/10/02 07:50:12;;;;;;;4.30;0.65;;;15.40;99.90;;;;;;5027131;28;20208;-82
2022/10/02 07:52:53;;;;;;;0.73;0.50;;;15.30;99.90;;;;;;5028342;28;20218;-82
2022/10/02 07:55:24;;;;;;;0.90;0.50;;;15.20;99.90;;;;;;5030587;28;20578;-82
2022/10/02 07:58:04;;;;;;;2.22;0.70;;;15.20;99.90;;;;;;5032322;28;20534;-71
2022/10/02 08:00:41;;;;;;;1.58;0.75;;;15.10;99.90;;;;;;5025003;28;20696;-69
2022/10/02 08:03:17;;;;;;;2.00;0.80;;;15.00;99.90;;;;;;5029339;28;20206;-80
2022/10/02 08:05:50;;;;;;;1.35;0.93;;;15.00;99.90;;;;;;5031879;28;20194;-78
2022/10/02 08:08:27;;;;;;;1.67;0.68;;;15.00;99.90;;;;;;5028893;28;20206;-79
2022/10/02 08:11:04;;;;;;;2.85;0.95;;;14.90;99.90;;;;;;5027868;28;20196;-73
2022/10/02 08:13:37;;;;;;;1.55;0.80;;;14.90;99.90;;;;;;5028716;28;20213;-76
2022/10/02 08:16:10;;;;;;;2.95;0.70;;;14.80;99.90;;;;;;5029557;28;20198;-74
2022/10/02 08:18:45;;;;;;;1.17;0.70;;;14.80;99.90;;;;;;5029640;28;20198;-78
2022/10/02 08:21:20;;;;;;;1.13;0.68;;;14.70;99.90;;;;;;5028595;28;20711;-72
2022/10/02 08:24:00;;;;;;;1.38;0.63;;;14.70;99.90;;;;;;5024296;28;20733;-78
2022/10/02 08:26:35;;;;;;;1.42;0.60;;;14.60;99.90;;;;;;5027950;28;20201;-81
2022/10/02 08:29:11;;;;;;;1.98;0.70;;;14.60;99.90;;;;;;5025718;28;20198;-80
2022/10/02 08:31:42;;;;;;;1.98;0.70;;;14.60;99.90;;;;;;5025847;28;20236;-75
2022/10/02 08:34:19;;;;;;;1.80;0.82;;;14.60;99.90;;;;;;5028470;28;20679;-75
2022/10/02 08:37:32;;;;;;;1.30;0.80;;;14.50;99.90;;;;;;5026651;28;20281;-78
2022/10/02 08:40:38;;;;;;;1.58;0.90;;;14.50;99.90;;;;;;5023588;28;20561;-81
2022/10/02 08:43:46;;;;;;;1.83;0.95;;;14.40;99.90;;;;;;5027657;28;20543;-82
2022/10/02 08:46:57;;;;;;;1.73;1.10;;;14.40;99.90;;;;;;5015802;28;20201;-82
2022/10/02 08:50:09;;;;;;;2.15;1.33;;;14.30;99.90;;;;;;5025673;28;20221;-82
2022/10/02 08:53:23;;;;;;;2.08;1.20;;;14.20;99.90;;;;;;5025872;28;20249;-81
2022/10/02 08:56:23;;;;;;;2.83;1.50;;;14.20;99.90;;;;;;5027856;28;20289;-82
2022/10/02 08:59:26;;;;;;;3.10;1.50;;;14.20;99.90;;;;;;5030478;28;20194;-81
2022/10/02 09:02:28;;;;;;;1.80;1.23;;;14.20;99.90;;;;;;5003390;28;20209;-81
2022/10/02 09:05:30;;;;;;;2.63;1.50;;;14.20;99.90;;;;;;5023144;28;20198;-81
2022/10/02 09:08:37;;;;;;;2.15;1.38;;;14.10;99.90;;;;;;5027292;28;20241;-81
2022/10/02 09:11:44;;;;;;;2.95;1.80;;;14.10;99.90;;;;;;5026560;28;20665;-82
2022/10/02 09:14:44;;;;;;;3.80;1.65;;;14.00;99.90;;;;;;5025733;28;20220;-79
2022/10/02 09:17:44;;;;;;;3.30;1.80;;;14.00;99.90;;;;;;5022582;28;20194;-82
2022/10/02 09:20:52;;;;;;;2.75;1.70;;;14.00;99.90;;;;;;5023621;28;20190;-82
2022/10/02 09:23:49;;;;;;;4.05;1.73;;;13.90;99.90;;;;;;4995711;28;20202;-81
2022/10/02 09:26:27;;;;;;;2.45;1.95;;;13.90;99.90;;;;;;5023184;28;20202;-79
2022/10/02 09:29:41;;;;;;;3.22;1.70;;;13.80;99.90;;;;;;5024684;28;20557;-82
2022/10/02 09:32:44;;;;;;;2.83;1.50;;;13.80;99.90;;;;;;5024100;28;20229;-81
2022/10/02 09:35:55;;;;;;;3.95;1.88;;;13.80;99.90;;;;;;5026087;28;20198;-81
2022/10/02 09:38:52;;;;;;;15.15;9.10;;;13.70;99.90;;;;;;5029063;28;20600;-82
2022/10/02 09:42:01;;;;;;;4.68;2.63;;;13.70;99.90;;;;;;5027840;28;20343;-80
2022/10/02 09:45:22;;;;;;;5.30;2.55;;;13.70;99.90;;;;;;5034152;28;20202;-79
2022/10/02 09:48:31;;;;;;;5.85;2.60;;;13.70;99.90;;;;;;5029095;28;20201;-80
2022/10/02 09:51:57;;;;;;;7.20;2.90;;;13.70;99.90;;;;;;5028335;28;20194;-81
2022/10/02 09:55:08;;;;;;;4.82;2.40;;;13.70;99.90;;;;;;5012875;28;20230;-82
2022/10/02 09:58:07;;;;;;;4.53;2.30;;;13.70;99.90;;;;;;5027474;28;20195;-82
2022/10/02 10:01:20;;;;;;;4.55;2.10;;;13.60;99.90;;;;;;5030591;28;20565;-82
2022/10/02 10:04:21;;;;;;;4.30;2.20;;;13.60;99.90;;;;;;5034788;28;20202;-82
2022/10/02 10:07:21;;;;;;;3.78;2.00;;;13.60;99.90;;;;;;5029131;28;20198;-83
2022/10/02 10:10:25;;;;;;;2.88;1.73;;;13.50;99.90;;;;;;5027840;28;20545;-81
2022/10/02 10:13:31;;;;;;;4.13;1.95;;;13.50;99.90;;;;;;5032891;28;20214;-82
2022/10/02 10:16:44;;;;;;;3.33;2.00;;;13.40;99.90;;;;;;4951693;28;20232;-81
2022/10/02 10:19:45;;;;;;;3.42;1.83;;;13.40;99.90;;;;;;5028690;28;20198;-81
2022/10/02 10:22:57;;;;;;;3.75;2.10;;;13.40;99.90;;;;;;5029635;28;20194;-81
2022/10/02 10:26:13;;;;;;;2.90;1.70;;;13.40;99.90;;;;;;5032097;28;20206;-82
2022/10/02 10:29:33;;;;;;;2.65;1.77;;;13.40;99.90;;;;;;5031565;28;20316;-81
2022/10/02 10:32:40;;;;;;;3.58;1.80;;;13.40;99.90;;;;;;4990676;28;20220;-82
2022/10/02 10:35:32;;;;;;;2.60;1.70;;;13.40;99.90;;;;;;5033375;28;20208;-80
2022/10/02 10:38:33;;;;;;;3.85;1.85;;;13.40;99.90;;;;;;5027678;28;20782;-76
2022/10/02 10:41:56;;;;;;;4.35;1.70;;;13.40;99.90;;;;;;5028947;28;20197;-80
2022/10/02 10:45:05;;;;;;;2.88;1.63;;;13.40;99.90;;;;;;4994417;28;20302;-77
2022/10/02 10:48:13;;;;;;;4.30;1.75;;;13.40;99.90;;;;;;5028897;28;20206;-78
2022/10/02 10:50:56;;;;;;;3.83;1.75;;;13.40;99.90;;;;;;4997295;28;20206;-77
2022/10/02 10:53:57;;;;;;;3.20;1.95;;;13.40;99.90;;;;;;5029117;28;20218;-77
2022/10/02 10:56:41;;;;;;;2.83;1.98;;;13.40;99.90;;;;;;5023843;28;20198;-81
2022/10/02 10:59:43;;;;;;;2.88;1.95;;;13.40;99.90;;;;;;5027151;28;20233;-82
2022/10/02 11:02:44;;;;;;;4.80;2.03;;;13.30;99.90;;;;;;5031251;28;20190;-78
2022/10/02 11:05:33;;;;;;;3.58;2.10;;;13.30;99.90;;;;;;5016985;28;20569;-82
2022/10/02 11:08:24;;;;;;;4.72;2.10;;;13.30;99.90;;;;;;5026223;28;20285;-81
2022/10/02 11:11:06;;;;;;;4.05;2.30;;;13.30;99.90;;;;;;5029972;28;20302;-75
2022/10/02 11:13:54;;;;;;;5.80;2.00;;;13.30;99.90;;;;;;5024509;28;20578;-73
2022/10/02 11:17:05;;;;;;;3.45;2.03;;;13.30;99.90;;;;;;5032214;28;20650;-82
2022/10/02 11:19:49;;;;;;;3.63;2.03;;;13.30;99.90;;;;;;4997651;28;20206;-81
2022/10/02 11:22:36;;;;;;;6.35;2.33;;;13.30;99.90;;;;;;5025565;28;20206;-79
2022/10/02 11:25:42;;;;;;;4.57;2.10;;;13.20;99.90;;;;;;5027184;28;20252;-78
2022/10/02 11:28:43;;;;;;;5.97;2.50;;;13.20;99.90;;;;;;4996235;28;20198;-79
2022/10/02 11:31:26;;;;;;;8.70;2.80;;;13.20;99.90;;;;;;5017315;28;20336;-76
2022/10/02 11:34:23;;;;;;;3.92;2.45;;;13.20;99.90;;;;;;5026603;28;20218;-76
2022/10/02 11:37:06;;;;;;;3.38;2.15;;;13.20;99.90;;;;;;5025741;28;20234;-80
2022/10/02 11:40:15;;;;;;;5.38;2.65;;;13.20;99.90;;;;;;5026218;28;20203;-74
2022/10/02 11:43:18;;;;;;;5.68;3.13;;;13.20;99.90;;;;;;5002525;28;20205;-77
2022/10/02 11:46:23;;;;;;;5.15;3.08;;;13.10;99.90;;;;;;5012610;28;20219;-82
2022/10/02 11:49:03;;;;;;;5.63;3.63;;;13.10;99.90;;;;;;5029344;28;20208;-76
2022/10/02 11:52:07;;;;;;;7.75;3.40;;;13.10;99.90;;;;;;5028329;28;20194;-80
2022/10/02 11:55:01;;;;;;;7.10;3.60;;;13.10;99.90;;;;;;5016701;28;20221;-74
2022/10/02 11:57:41;;;;;;;9.88;3.92;;;13.10;99.90;;;;;;5028155;28;20666;-74
2022/10/02 12:00:29;;;;;;;5.88;3.85;;;13.10;99.90;;;;;;5030490;28;20194;-80
2022/10/02 12:03:03;;;;;;;7.93;4.47;;;13.10;99.90;;;;;;5023883;28;20665;-79
2022/10/02 12:05:54;;;;;;;11.43;5.07;;;13.10;99.90;;;;;;5027270;28;20257;-73
2022/10/02 12:08:36;;;;;;;10.30;5.47;;;13.10;99.90;;;;;;5031706;28;20226;-74
2022/10/02 12:11:16;;;;;;;13.20;7.47;;;13.00;99.90;;;;;;5027772;28;20194;-77
2022/10/02 12:14:20;;;;;;;29.75;15.43;;;13.00;99.90;;;;;;5028588;28;20217;-73
2022/10/02 12:17:08;;;;;;;20.73;11.90;;;13.00;99.90;;;;;;5024402;28;20201;-81
2022/10/02 12:28:40;;;;;;;10.80;6.28;;;12.80;99.90;;;;;;5029845;28;20241;-76
2022/10/02 12:31:18;;;;;;;12.50;6.57;;;12.70;99.90;;;;;;5028649;28;20693;-81
2022/10/02 12:34:00;;;;;;;10.60;6.15;;;12.70;99.90;;;;;;5028439;28;20217;-75
2022/10/02 12:36:55;;;;;;;10.23;6.63;;;12.70;99.90;;;;;;5027968;28;20201;-76
2022/10/02 12:39:45;;;;;;;14.40;7.00;;;12.60;99.90;;;;;;5022324;28;20198;-81
2022/10/02 12:42:41;;;;;;;10.68;5.72;;;12.60;99.90;;;;;;5024324;28;20195;-71
2022/10/02 12:45:30;;;;;;;10.85;5.57;;;12.60;99.90;;;;;;5027097;28;20203;-75
2022/10/02 12:48:29;;;;;;;11.50;5.63;;;12.50;99.90;;;;;;5028043;28;20213;-75
2022/10/02 12:51:33;;;;;;;10.70;5.70;;;12.50;99.90;;;;;;5027177;28;20202;-80
2022/10/02 12:54:46;;;;;;;9.05;5.88;;;12.50;99.90;;;;;;5027605;28;20694;-77
2022/10/02 12:57:56;;;;;;;12.20;5.30;;;12.40;99.90;;;;;;5028835;28;20248;-76
2022/10/02 13:00:44;;;;;;;10.65;5.65;;;12.40;99.90;;;;;;5027246;28;20202;-78
2022/10/02 13:03:49;;;;;;;9.68;5.68;;;12.40;99.90;;;;;;5026229;28;20198;-79
2022/10/02 13:06:48;;;;;;;10.68;5.47;;;12.30;99.90;;;;;;5029224;28;20197;-77
2022/10/02 13:09:42;;;;;;;9.70;5.90;;;12.30;99.90;;;;;;5029763;28;20194;-74
2022/10/02 13:12:43;;;;;;;15.05;6.78;;;12.30;99.90;;;;;;5026725;28;20193;-81
2022/10/02 13:15:34;;;;;;;11.90;6.93;;;12.30;99.90;;;;;;5027467;28;20230;-81
2022/10/02 13:18:18;;;;;;;12.75;7.20;;;12.30;99.90;;;;;;5023930;28;20686;-81
2022/10/02 13:21:00;;;;;;;14.93;7.30;;;12.30;99.90;;;;;;5025703;28;20190;-81
2022/10/02 13:23:38;;;;;;;11.70;6.60;;;12.30;99.90;;;;;;5029339;28;20674;-82
2022/10/02 13:26:20;;;;;;;16.45;7.38;;;12.40;99.90;;;;;;5030709;28;20656;-77
2022/10/02 13:29:24;;;;;;;12.05;6.80;;;12.40;99.90;;;;;;5023123;28;21142;-81
2022/10/02 13:32:22;;;;;;;15.63;6.68;;;12.40;99.90;;;;;;4997031;28;20226;-77
2022/10/02 13:35:05;;;;;;;12.68;6.63;;;12.40;99.90;;;;;;5029346;28;20224;-77
2022/10/02 13:37:48;;;;;;;11.80;6.95;;;12.40;99.90;;;;;;5029058;28;20238;-80
2022/10/02 13:40:28;;;;;;;11.93;6.78;;;12.40;99.90;;;;;;5025717;28;20194;-80
2022/10/02 13:43:27;;;;;;;12.50;7.10;;;12.40;99.90;;;;;;5022878;28;20200;-81
2022/10/02 13:46:07;;;;;;;9.95;6.15;;;12.40;99.90;;;;;;5028144;28;20209;-76
2022/10/02 13:48:53;;;;;;;11.38;6.72;;;12.40;99.90;;;;;;5026264;28;20204;-80
2022/10/02 13:51:32;;;;;;;11.68;7.05;;;12.50;99.90;;;;;;5028953;28;20680;-80
2022/10/02 13:54:42;;;;;;;9.77;6.18;;;12.50;99.90;;;;;;5024699;28;20289;-81
2022/10/02 13:57:25;;;;;;;10.55;6.20;;;12.50;99.90;;;;;;5014750;28;20649;-79
2022/10/02 14:00:13;;;;;;;12.82;6.68;;;12.40;99.90;;;;;;5027178;28;20230;-68
2022/10/02 14:03:01;;;;;;;10.85;5.95;;;12.40;99.90;;;;;;5023930;28;20198;-70
2022/10/02 14:05:43;;;;;;;8.63;5.72;;;12.40;99.90;;;;;;5021961;28;20206;-80
2022/10/02 14:08:31;;;;;;;11.20;6.22;;;12.40;99.90;;;;;;5027330;28;20303;-77
2022/10/02 14:11:15;;;;;;;12.55;6.57;;;12.40;99.90;;;;;;5025442;28;20225;-76
2022/10/02 14:13:58;;;;;;;14.52;6.45;;;12.40;99.90;;;;;;5027117;28;20600;-75
2022/10/02 14:16:48;;;;;;;9.85;6.30;;;12.30;99.90;;;;;;5024577;28;20202;-72
2022/10/02 14:19:39;;;;;;;8.20;5.40;;;12.30;99.90;;;;;;5021038;28;20198;-69
2022/10/02 14:22:27;;;;;;;10.45;5.78;;;12.30;99.90;;;;;;5027838;28;20198;-80
2022/10/02 14:25:09;;;;;;;8.05;5.20;;;12.20;99.90;;;;;;5032215;28;20221;-77
2022/10/02 14:28:12;;;;;;;9.52;5.68;;;12.20;99.90;;;;;;5023746;28;20231;-75
2022/10/02 14:31:01;;;;;;;10.68;5.57;;;12.20;99.90;;;;;;5027621;28;20202;-70
2022/10/02 14:33:48;;;;;;;7.68;5.30;;;12.10;99.90;;;;;;5032290;28;20228;-81